Motte Rimrock Reserve, California Weather observations

Data are for 10 minute period ending at time listed.
 Day   Time   Solar   Ave.   Ave.  Ave.  Vector  Max.   Baro.   Total    
  of    of     Rad.   Air    Rel.  Wind   Wind   Wind  Press.  Precip.   
Year   Day            Temp.  Hum.  Speed  Dir.   Gust                    
2017   (PST)  Kw/m2    F      %     mph   deg.    mph    mb.     in.     
-------------------------------------------------------------------------
  20   22:20   0.00   45.4    78   13.2   266    17.1   932.7    0.00 
  20   22:30   0.00   45.5    77   16.6   267    22.9   932.5    0.00 
  20   22:40   0.00   45.4    76   19.2   269    27.0   932.2    0.00 
  20   22:50   0.00   45.2    77   20.3   271    27.8   932.4    0.00 
  20   23:00   0.00   45.1    76   20.6   269    28.8   932.5    0.00 
  20   23:10   0.00   45.1    76   20.0   272    26.7   932.7    0.00 
  20   23:20   0.00   44.7    78   15.8   272    24.5   932.9    0.00 
  20   23:30   0.00   45.1    76   20.3   263    27.7   932.6    0.00 
  20   23:40   0.00   45.4    74   20.1   258    30.2   932.5    0.00 
  20   23:50   0.00   45.1    73   17.0   260    26.0   932.6    0.00 
  21    0:00   0.00   45.0    73   17.2   272    24.5   932.9    0.00 
  21    0:10   0.00   44.4    75   15.2   277    19.8   933.1    0.00 
  21    0:20   0.00   44.2    76   14.9   276    19.5   933.1    0.00 
  21    0:30   0.00   44.3    73   20.0   270    27.8   933.2    0.00 
  21    0:40   0.00   44.3    72   23.2   268    34.0   933.2    0.00 
  21    0:50   0.00   44.2    72   22.1   270    28.3   933.4    0.00 
  21    1:00   0.00   44.1    72   20.7   266    26.9   933.6    0.00 
  21    1:10   0.00   44.1    71   20.0   260    32.2   933.5    0.00 
  21    1:20   0.00   44.0    70   21.0   261    30.1   933.6    0.00 
  21    1:30   0.00   44.0    68   21.9   263    32.2   933.5    0.00 
  21    1:40   0.00   44.2    68   22.6   266    31.7   933.7    0.00 
  21    1:50   0.00   44.2    68   22.2   267    31.6   933.9    0.00 
  21    2:00   0.00   43.9    70   21.3   276    29.8   934.1    0.00 
  21    2:10   0.00   43.5    72   19.0   277    24.8   934.4    0.00 
  21    2:20   0.00   43.4    73   18.5   274    24.5   934.6    0.00 
  21    2:30   0.00   43.3    74   18.0   269    24.4   934.7    0.00 
  21    2:40   0.00   43.3    75   17.2   268    23.5   934.9    0.00 
  21    2:50   0.00   43.2    75   17.0   270    22.4   934.9    0.00 
  21    3:00   0.00   43.0    77   15.6   280    20.2   935.2    0.00 
  21    3:10   0.00   42.9    77   15.3   281    21.4   935.3    0.00 
  21    3:20   0.00   42.7    78   14.7   283    18.6   935.4    0.00 
  21    3:30   0.00   42.4    80   16.9   282    26.1   935.4    0.00 
  21    3:40   0.00   43.0    78   21.1   280    27.6   935.4    0.00 
  21    3:50   0.00   42.9    80   19.4   278    26.4   935.5    0.00 
  21    4:00   0.00   42.8    80   20.2   272    26.1   935.5    0.00 
  21    4:10   0.00   42.9    80   22.7   277    30.1   935.6    0.00 
  21    4:20   0.00   42.7    80   21.4   275    30.3   935.7    0.00 
  21    4:30   0.00   42.5    79   20.9   277    26.7   936.0    0.00 
  21    4:40   0.00   42.7    77   22.8   274    27.7   936.1    0.00 
  21    4:50   0.00   42.6    76   22.3   271    29.2   936.2    0.00 
  21    5:00   0.00   42.5    75   21.4   275    27.3   936.3    0.00 
  21    5:10   0.00   42.4    75   19.2   275    25.2   936.4    0.00 
  21    5:20   0.00   42.3    75   17.7   272    22.9   936.5    0.00 
  21    5:30   0.00   42.3    76   16.4   275    21.9   936.8    0.00 
  21    5:40   0.00   42.1    76   15.0   276    19.7   937.2    0.00 
  21    5:50   0.00   42.2    76   14.9   271    20.0   937.6    0.00 
  21    6:00   0.00   42.1    77   12.1   275    16.6   937.9    0.00 
  21    6:10   0.00   42.0    78   12.2   277    16.1   938.2    0.00 
  21    6:20   0.00   42.0    78   12.2   277    17.0   938.5    0.00 
  21    6:30   0.00   42.0    77    9.9   282    16.1   938.9    0.00 
  21    6:40   0.00   41.7    78    3.9   282     8.7   939.3    0.00 
  21    6:50   0.00   41.3    79    1.5    96     3.5   939.5    0.00 
  21    7:00   0.00   40.7    82    3.3    74     5.6   939.7    0.00 
  21    7:10   0.00   40.3    86    5.2    93     8.0   939.9    0.00 
  21    7:20   0.03   40.5    86    4.4    61     5.6   940.2    0.00 
  21    7:30   0.06   41.9    84    5.6    41     6.9   940.5    0.00 
  21    7:40   0.09   42.2    83    5.6    19     7.5   940.6    0.00 
  21    7:50   0.12   42.6    82    5.3    22     8.1   940.8    0.00 
  21    8:00   0.10   43.1    81    5.4    28     7.5   940.9    0.00 
  21    8:10   0.19   43.1    82    4.5    29     6.6   941.3    0.00 
  21    8:20   0.11   43.4    81    5.1    31     7.7   941.4    0.00 
  21    8:30   0.22   43.9    80    4.6    39     6.9   941.9    0.00 
  21    8:40   0.28   45.0    78    3.7    28     5.6   942.1    0.00 
  21    8:50   0.30   45.5    75    3.9    58     5.3   942.0    0.00 
  21    9:00   0.33   46.2    74    3.8    77     6.3   942.4    0.00 
  21    9:10   0.35   46.0    73    5.5    95     7.2   942.7    0.00 
  21    9:20   0.40   46.4    75    6.2    80     9.6   943.1    0.00 
  21    9:30   0.45   46.5    73    6.9    74    10.5   943.4    0.00 
  21    9:40   0.46   47.7    67    3.3   110     6.8   943.5    0.00 
  21    9:50   0.34   48.5    67    2.5    72     6.2   943.5    0.00 
  21   10:00   0.46   47.9    69    4.3    93     9.2   943.8    0.00 
  21   10:10   0.15   47.3    70    4.6   105     6.6   944.1    0.00 
  21   10:20   0.15   46.6    71    2.3   149     4.3   944.5    0.00 
  21   10:30   0.34   47.3    69    2.6    82     4.5   944.6    0.00 
  21   10:40   0.38   48.5    68    5.7   122     9.8   944.6    0.00 
  21   10:50   0.69   49.6    66    7.3   140    11.1   944.7    0.00 
  21   11:00   0.50   49.7    64    5.9   150     9.3   944.8    0.00 
  21   11:10   0.62   49.7    67    7.3   108    10.4   944.9    0.00 
  21   11:20   0.31   49.2    69    6.5   106    10.0   944.8    0.00 
  21   11:30   0.51   49.4    67    6.6    92    10.0   944.7    0.00 
  21   11:40   0.36   49.0    64    3.3   131     6.5   944.8    0.00 
  21   11:50   0.63   50.5    60    3.5   101     6.8   944.8    0.00 
  21   12:00   0.70   50.9    56    4.5   226     7.7   945.1    0.00 
  21   12:10   0.76   52.3    56    4.2   200     8.6   945.4    0.00 
  21   12:20   0.34   51.0    58    4.9   185     9.1   945.6    0.00 
  21   12:30   0.14   50.5    59    3.6   223     9.5   945.5    0.00 
  21   12:40   0.22   50.0    62    6.0   316     7.7   945.5    0.00 
  21   12:50   0.07   49.5    60    3.8   313     6.8   945.4    0.00 
  21   13:00   0.16   49.8    59    4.7   303     8.3   945.2    0.00 
  21   13:10   0.16   50.2    56    6.0   278     8.6   945.2    0.00 
  21   13:20   0.17   50.6    56    4.9   288     8.4   945.2    0.00 
  21   13:30   0.21   50.1    58    7.5   287     9.2   945.3    0.00 
  21   13:40   0.14   50.6    55    5.4   291     9.1   945.3    0.00 
  21   13:50   0.22   50.5    56    4.3   288     5.8   945.4    0.00 
  21   14:00   0.17   52.0    52    2.8   234     5.0   945.5    0.00 
  21   14:10   0.14   51.2    54    2.9   206     4.7   945.6    0.00 
  21   14:20   0.28   52.0    54    3.7   274     9.5   945.6    0.00 
  21   14:30   0.37   53.4    52    3.2   228     7.9   945.8    0.00 
  21   14:40   0.47   54.0    50    2.6   240     7.6   945.7    0.00 
  21   14:50   0.38   54.0    52    4.3   271     7.5   946.0    0.00 
  21   15:00   0.24   53.2    53    3.8   310     6.6   946.5    0.00 
  21   15:10   0.12   52.2    56    4.1   306     7.7   946.5    0.00 
  21   15:20   0.15   52.2    54    4.1   295     6.4   946.4    0.00 
  21   15:30   0.13   51.9    57    5.2   296     8.4   946.4    0.00 
  21   15:40   0.28   52.9    54    5.0   275     7.6   946.4    0.00 
  21   15:50   0.08   52.7    56    5.0   248     8.0   946.5    0.00 
  21   16:00   0.06   51.5    57    3.1   231     4.9   946.6    0.00 
  21   16:10   0.04   51.4    58    4.0   242     5.5   946.8    0.00 
  21   16:20   0.04   51.2    57    2.7   243     5.8   946.5    0.00 
  21   16:30   0.03   50.9    60    4.4   212    12.4   946.5    0.00 
  21   16:40   0.03   50.0    70    6.7   204    10.2   946.3    0.00 
  21   16:50   0.01   49.5    71    6.0   204     9.6   946.3    0.00 
  21   17:00   0.00   48.8    73    5.7   219     8.4   946.5    0.00 
  21   17:10   0.00   48.4    73    5.7   232     8.6   946.9    0.00 
  21   17:20   0.00   48.0    74    4.2   232     6.1   947.1    0.00 
  21   17:30   0.00   47.6    75    3.9   210     5.3   946.8    0.00 
  21   17:40   0.00   47.3    77    4.9   209     6.0   947.3    0.00 
  21   17:50   0.00   47.1    77    4.9   206     6.6   947.2    0.00 
  21   18:00   0.00   47.2    76    4.4   234     5.7   947.0    0.00 
  21   18:10   0.00   46.7    77    4.1   232     5.1   947.4    0.00 
  21   18:20   0.00   46.7    77    3.1   234     4.1   947.5    0.00 
  21   18:30   0.00   46.8    76    2.0   248     2.9   947.7    0.00 
  21   18:40   0.00   46.9    74    2.6   186     7.7   947.7    0.00 
  21   18:50   0.00   45.7    80    4.7   102     7.6   947.9    0.00 
  21   19:00   0.00   45.1    83    7.6   136     9.9   948.1    0.00 
  21   19:10   0.00   45.2    82    6.5   151     8.0   948.3    0.00 
  21   19:20   0.00   45.4    82    5.6   157     7.5   948.7    0.00 
  21   19:30   0.00   45.6    82    4.9   170     6.4   948.9    0.00 
  21   19:40   0.00   45.6    82    4.7   178     6.2   948.9    0.00 
  21   19:50   0.00   45.4    83    3.8   191     5.0   949.0    0.00 
  21   20:00   0.00   45.2    84    3.0   215     4.3   949.2    0.00 
  21   20:10   0.00   44.7    85    5.2   218     6.6   949.4    0.00 
  21   20:20   0.00   44.1    86    4.1   226     6.2   949.5    0.00 
  21   20:30   0.00   43.9    86    3.0   170     4.2   949.5    0.00 
  21   20:40   0.00   44.5    84    2.7   223     3.1   949.9    0.00 
  21   20:50   0.00   44.5    85    2.2   233     2.9   950.1    0.00 
  21   21:00   0.00   45.1    82    1.8    40     5.3   950.1    0.00 
  21   21:10   0.00   44.3    85    3.9    47     6.4   950.3    0.00 
  21   21:20   0.00   44.3    85    2.6    78     4.1   950.5    0.00 
  21   21:30   0.00   44.1    86    4.1    90     4.8   950.4    0.00 
  21   21:40   0.00   43.6    88    3.5    85     4.7   950.3    0.00 
  21   21:50   0.00   43.4    89    6.4   102     8.9   950.0    0.00 
  21   22:00   0.00   43.2    89    6.6   109     7.6   950.0    0.00 
  21   22:10   0.00   43.1    90    4.9   126     6.2   950.4    0.00 

Return to Motte Rimrock Reserve graphs page.


Western Regional Climate Center,wrcc@dri.edu